Time;durP1;ratioP1;P1;durP2;ratioP2;P2;SDS_P1;SDS_P2;PMS_P1;PMS_P2;Temp;Humidity;BMP_temperature;BMP_pressure;BME280_temperature;BME280_humidity;BME280_pressure;Samples;Min_cycle;Max_cycle;Signal;HPM_P1;HPM_P2
2023/12/16 00:00:59;;;;;;;20.13;8.57;;;;;;;7.90;92.68;102919.19;7392044;19;20868;-78
2023/12/16 00:03:27;;;;;;;23.17;9.10;;;;;;;7.93;92.50;102914.56;7391945;19;20788;-78
2023/12/16 00:05:54;;;;;;;18.77;8.20;;;;;;;7.93;92.21;102897.88;7392954;19;20863;-78
2023/12/16 00:08:22;;;;;;;21.13;8.43;;;;;;;7.94;92.34;102895.09;7393036;19;20414;-78
2023/12/16 00:10:49;;;;;;;20.38;8.85;;;;;;;7.96;92.33;102893.19;7391397;19;20904;-78
2023/12/16 00:13:20;;;;;;;19.55;8.55;;;;;;;7.94;92.46;102895.09;7390145;19;20357;-78
2023/12/16 00:15:47;;;;;;;19.40;8.82;;;;;;;7.98;92.29;102906.31;7393613;19;20798;-78
2023/12/16 00:18:14;;;;;;;20.77;9.07;;;;;;;7.99;92.04;102908.03;7391553;19;20336;-78
2023/12/16 00:20:41;;;;;;;20.35;8.40;;;;;;;8.04;91.92;102894.50;7394735;19;20375;-78
2023/12/16 00:23:07;;;;;;;24.77;9.07;;;;;;;8.04;91.72;102897.97;7392236;19;20402;-78
2023/12/16 00:25:34;;;;;;;19.23;8.38;;;;;;;8.08;91.53;102903.91;7392770;19;20360;-78
2023/12/16 00:28:01;;;;;;;17.90;7.85;;;;;;;8.05;91.37;102912.03;7391421;19;20709;-78
2023/12/16 00:30:28;;;;;;;24.60;8.45;;;;;;;8.04;91.60;102911.19;7399613;19;20922;-79
2023/12/16 00:32:54;;;;;;;18.87;8.23;;;;;;;8.00;91.53;102916.81;7397321;19;20344;-77
2023/12/16 00:35:21;;;;;;;18.02;8.05;;;;;;;8.01;91.46;102914.06;7397118;19;20369;-79
2023/12/16 00:37:48;;;;;;;16.92;7.82;;;;;;;8.03;91.36;102914.78;7399019;19;20713;-79
2023/12/16 00:40:15;;;;;;;16.67;7.57;;;;;;;8.00;91.46;102917.63;7397649;19;20361;-78
2023/12/16 00:42:42;;;;;;;20.55;8.20;;;;;;;7.98;91.47;102924.81;7400853;19;20756;-78
2023/12/16 00:45:09;;;;;;;22.05;8.57;;;;;;;8.02;91.23;102917.53;7398806;19;20348;-78
2023/12/16 00:47:37;;;;;;;19.13;8.50;;;;;;;8.03;91.29;102914.78;7396279;19;20340;-78
2023/12/16 00:50:05;;;;;;;20.10;8.35;;;;;;;8.02;91.37;102921.03;7398305;19;20857;-77
2023/12/16 00:52:32;;;;;;;16.90;7.68;;;;;;;7.96;91.37;102919.63;7398373;19;20339;-77
2023/12/16 00:54:59;;;;;;;18.55;7.70;;;;;;;7.96;91.41;102914.34;7397012;19;20844;-78
2023/12/16 00:57:26;;;;;;;18.30;7.40;;;;;;;7.93;91.47;102913.72;7399385;19;20372;-79
2023/12/16 00:59:53;;;;;;;17.90;7.67;;;;;;;7.95;91.42;102917.97;7401462;19;20361;-78
2023/12/16 01:02:20;;;;;;;17.05;7.55;;;;;;;7.93;91.38;102909.28;7397070;19;20321;-78
2023/12/16 01:04:47;;;;;;;18.13;7.75;;;;;;;7.92;91.36;102910.22;7394033;19;20398;-78
2023/12/16 01:07:13;;;;;;;16.90;7.20;;;;;;;7.87;91.68;102916.78;7399486;19;20376;-78
2023/12/16 01:09:40;;;;;;;20.45;7.82;;;;;;;7.88;91.66;102911.38;7398316;19;20364;-79
2023/12/16 01:12:08;;;;;;;18.27;7.37;;;;;;;7.84;91.59;102909.03;7399268;19;20490;-78
2023/12/16 01:14:38;;;;;;;18.15;7.38;;;;;;;7.83;91.41;102907.34;7393491;19;22408;-78
2023/12/16 01:17:05;;;;;;;17.77;7.32;;;;;;;7.79;91.64;102911.16;7397486;19;20711;-77
2023/12/16 01:19:32;;;;;;;18.75;7.05;;;;;;;7.75;91.61;102913.97;7399923;19;20449;-78
2023/12/16 01:21:59;;;;;;;18.27;7.15;;;;;;;7.74;91.65;102920.22;7396808;19;20381;-78
2023/12/16 01:24:25;;;;;;;19.27;7.32;;;;;;;7.70;91.82;102918.75;7397349;19;20376;-78
2023/12/16 01:26:52;;;;;;;18.38;7.18;;;;;;;7.68;91.65;102925.91;7399523;19;20411;-78
2023/12/16 01:29:19;;;;;;;18.30;6.63;;;;;;;7.66;91.86;102919.88;7395496;19;20369;-78
2023/12/16 01:31:45;;;;;;;17.50;6.60;;;;;;;7.68;92.10;102919.78;7396083;19;20340;-79
2023/12/16 01:34:12;;;;;;;16.50;6.50;;;;;;;7.66;92.07;102909.31;7394632;19;20349;-78
2023/12/16 01:36:39;;;;;;;16.88;6.55;;;;;;;7.67;92.00;102918.94;7396142;19;20348;-78
2023/12/16 01:39:06;;;;;;;20.35;6.82;;;;;;;7.69;91.98;102921.47;7396523;19;20381;-77
2023/12/16 01:41:32;;;;;;;17.90;7.07;;;;;;;7.70;91.96;102925.81;7399841;19;20360;-78
2023/12/16 01:43:59;;;;;;;19.77;7.20;;;;;;;7.71;92.20;102915.16;7399007;19;20860;-79
2023/12/16 01:46:26;;;;;;;17.47;7.23;;;;;;;7.72;91.97;102924.75;7395703;19;20424;-78
2023/12/16 01:48:53;;;;;;;19.85;7.70;;;;;;;7.74;91.98;102922.88;7396201;19;20348;-78
2023/12/16 01:51:20;;;;;;;18.92;8.00;;;;;;;7.74;92.05;102919.38;7397349;19;20873;-78
2023/12/16 01:53:47;;;;;;;21.85;8.07;;;;;;;7.75;91.91;102921.06;7395536;19;20435;-78
2023/12/16 01:56:14;;;;;;;19.17;7.57;;;;;;;7.75;91.78;102932.47;7397187;19;20356;-78
2023/12/16 01:58:41;;;;;;;19.67;7.82;;;;;;;7.75;91.75;102913.13;7398172;19;20341;-78
2023/12/16 02:01:08;;;;;;;20.05;7.28;;;;;;;7.74;91.26;102920.22;7394104;19;20777;-79
2023/12/16 02:03:36;;;;;;;18.17;7.47;;;;;;;7.75;91.09;102916.63;7394994;19;20360;-78
2023/12/16 02:06:03;;;;;;;17.23;7.28;;;;;;;7.74;90.90;102925.50;7396305;19;20364;-78
2023/12/16 02:08:32;;;;;;;18.50;6.95;;;;;;;7.73;90.42;102925.59;7396343;19;20886;-78
2023/12/16 02:10:59;;;;;;;16.45;7.18;;;;;;;7.74;90.11;102925.50;7395780;19;20409;-78
2023/12/16 02:13:26;;;;;;;15.85;6.72;;;;;;;7.76;89.84;102918.34;7392845;19;20871;-78
2023/12/16 02:15:53;;;;;;;19.17;7.47;;;;;;;7.77;89.46;102913.88;7397013;19;20348;-78
2023/12/16 02:18:20;;;;;;;15.80;6.25;;;;;;;7.76;89.12;102923.63;7395016;19;20722;-78
2023/12/16 02:20:47;;;;;;;17.00;7.07;;;;;;;7.80;89.06;102928.69;7395928;19;20335;-78
2023/12/16 02:23:15;;;;;;;12.93;5.97;;;;;;;7.83;88.74;102941.72;7393889;19;20342;-78
2023/12/16 02:25:42;;;;;;;14.55;6.35;;;;;;;7.78;88.44;102935.88;7395068;19;20361;-78
2023/12/16 02:28:10;;;;;;;15.55;6.03;;;;;;;7.78;88.35;102925.28;7394858;19;20353;-78
2023/12/16 02:30:37;;;;;;;15.02;5.82;;;;;;;7.83;88.07;102933.78;7396697;19;20349;-78
2023/12/16 02:33:04;;;;;;;13.65;6.07;;;;;;;7.81;87.74;102925.09;7395378;19;20670;-77
2023/12/16 02:35:31;;;;;;;14.77;5.50;;;;;;;7.81;87.21;102927.75;7395778;19;20549;-78
2023/12/16 02:37:58;;;;;;;14.05;5.43;;;;;;;7.85;87.04;102934.53;7393842;19;20860;-77
2023/12/16 02:40:24;;;;;;;14.13;5.65;;;;;;;7.86;86.63;102928.28;7393274;19;20383;-78
2023/12/16 02:42:51;;;;;;;12.07;5.00;;;;;;;7.87;86.13;102935.28;7396847;19;20687;-78
2023/12/16 02:45:19;;;;;;;11.10;4.73;;;;;;;7.90;86.17;102929.78;7390941;19;20424;-77
2023/12/16 02:47:46;;;;;;;11.82;5.10;;;;;;;7.93;85.88;102926.94;7394584;19;20694;-78
2023/12/16 02:50:13;;;;;;;11.27;4.97;;;;;;;7.95;85.93;102928.53;7394151;19;20340;-78
2023/12/16 02:52:40;;;;;;;12.68;5.28;;;;;;;7.97;85.88;102929.28;7390015;19;20340;-78
2023/12/16 02:55:07;;;;;;;13.23;4.88;;;;;;;7.97;85.25;102937.19;7392412;19;20703;-78
2023/12/16 02:57:33;;;;;;;12.73;4.80;;;;;;;7.99;85.34;102937.09;7396210;19;20918;-77
2023/12/16 03:00:00;;;;;;;12.73;4.97;;;;;;;8.03;85.57;102935.91;7391910;19;20785;-78
2023/12/16 03:02:27;;;;;;;11.82;4.70;;;;;;;8.03;85.31;102935.91;7391437;19;20364;-79
2023/12/16 03:04:54;;;;;;;11.13;4.53;;;;;;;8.04;84.85;102937.63;7393704;19;20376;-77
2023/12/16 03:07:21;;;;;;;14.07;4.60;;;;;;;8.02;84.48;102950.09;7394479;19;20357;-78
2023/12/16 03:09:48;;;;;;;12.90;4.72;;;;;;;8.01;84.33;102940.50;7396109;19;20382;-78
2023/12/16 03:12:15;;;;;;;12.40;5.05;;;;;;;8.02;84.23;102939.53;7395841;19;20353;-78
2023/12/16 03:14:42;;;;;;;12.77;5.25;;;;;;;8.04;84.36;102940.28;7393890;19;20390;-78
2023/12/16 03:17:12;;;;;;;12.88;4.82;;;;;;;8.03;83.92;102941.22;7397440;19;20392;-78
2023/12/16 03:19:38;;;;;;;10.13;4.20;;;;;;;8.00;83.91;102949.34;7391143;19;20341;-78
2023/12/16 03:22:05;;;;;;;12.68;4.45;;;;;;;8.00;83.67;102944.06;7393956;19;20353;-77
2023/12/16 03:24:32;;;;;;;12.13;4.75;;;;;;;8.00;83.38;102946.72;7393265;19;20369;-79
2023/12/16 03:26:59;;;;;;;11.05;4.03;;;;;;;7.98;83.34;102948.59;7395484;19;20364;-78
2023/12/16 03:29:26;;;;;;;9.88;4.60;;;;;;;8.00;83.25;102953.81;7390005;19;20399;-78
2023/12/16 03:31:53;;;;;;;13.10;4.30;;;;;;;8.00;83.29;102941.44;7390536;19;20340;-79
2023/12/16 03:34:20;;;;;;;12.23;3.80;;;;;;;8.00;82.91;102930.84;7392005;19;20349;-78
2023/12/16 03:36:46;;;;;;;11.35;3.75;;;;;;;8.00;82.77;102925.56;7390882;19;20344;-78
2023/12/16 03:39:13;;;;;;;12.77;4.05;;;;;;;7.98;82.05;102927.47;7393367;19;20428;-78
2023/12/16 03:41:40;;;;;;;12.23;4.17;;;;;;;8.00;82.47;102936.13;7390437;19;20864;-78
2023/12/16 03:44:07;;;;;;;10.25;3.50;;;;;;;7.98;81.71;102932.75;7390077;19;20365;-78
2023/12/16 03:46:33;;;;;;;13.27;4.03;;;;;;;7.99;81.78;102929.19;7392578;19;20352;-78
2023/12/16 03:49:00;;;;;;;9.32;3.70;;;;;;;7.99;81.10;102929.19;7389681;19;20344;-78
2023/12/16 03:51:27;;;;;;;9.70;3.80;;;;;;;8.01;80.90;102932.56;7394927;19;20373;-77
2023/12/16 03:53:54;;;;;;;10.77;3.65;;;;;;;8.02;80.83;102928.97;7392772;19;20419;-78
2023/12/16 03:56:21;;;;;;;12.18;3.78;;;;;;;8.03;80.43;102933.28;7392360;19;20354;-79
2023/12/16 03:58:47;;;;;;;10.80;3.70;;;;;;;8.06;80.66;102930.44;7391565;19;20348;-78
2023/12/16 04:01:14;;;;;;;9.60;3.47;;;;;;;8.07;80.20;102932.13;7392887;19;20857;-77
2023/12/16 04:03:41;;;;;;;12.70;3.78;;;;;;;8.05;80.02;102933.19;7389309;19;20368;-77
2023/12/16 04:06:12;;;;;;;12.40;3.67;;;;;;;8.06;79.62;102926.97;7394372;19;20345;-77
2023/12/16 04:08:40;;;;;;;11.20;3.47;;;;;;;8.07;79.58;102920.72;7392048;19;20403;-78
2023/12/16 04:11:08;;;;;;;9.18;3.47;;;;;;;8.06;79.17;102924.31;7394307;19;20382;-78
2023/12/16 04:13:35;;;;;;;11.00;3.15;;;;;;;8.06;79.14;102924.31;7389626;19;20402;-78
2023/12/16 04:16:04;;;;;;;14.60;3.88;;;;;;;8.07;79.24;102916.25;7394326;19;20381;-77
2023/12/16 04:18:32;;;;;;;11.27;3.47;;;;;;;8.06;78.96;102914.59;7392379;19;20376;-78
2023/12/16 04:21:01;;;;;;;10.93;3.47;;;;;;;8.05;78.64;102906.75;7393083;19;20363;-78
2023/12/16 04:23:28;;;;;;;12.38;3.17;;;;;;;8.06;78.08;102911.94;7391304;19;20392;-78
2023/12/16 04:25:55;;;;;;;8.57;2.95;;;;;;;8.07;77.88;102903.03;7389801;19;20747;-78
2023/12/16 04:28:22;;;;;;;9.90;2.88;;;;;;;8.07;77.50;102897.75;7391892;19;20647;-78
2023/12/16 04:30:48;;;;;;;8.68;3.00;;;;;;;8.08;77.39;102902.13;7389184;19;20368;-78
2023/12/16 04:33:15;;;;;;;12.00;3.10;;;;;;;8.10;77.19;102900.22;7389725;19;21281;-78
2023/12/16 04:35:42;;;;;;;8.85;2.90;;;;;;;8.11;77.12;102904.53;7393271;19;20345;-77
2023/12/16 04:38:09;;;;;;;12.88;3.47;;;;;;;8.13;76.99;102899.16;7390979;19;20696;-77
2023/12/16 04:40:36;;;;;;;9.50;3.10;;;;;;;8.12;76.63;102903.59;7394236;19;20360;-78
2023/12/16 04:43:03;;;;;;;10.80;3.17;;;;;;;8.16;77.02;102905.09;7391705;19;20356;-78
2023/12/16 04:45:30;;;;;;;10.98;3.22;;;;;;;8.19;77.17;102914.59;7391303;19;20364;-78
2023/12/16 04:47:57;;;;;;;8.90;2.80;;;;;;;8.16;76.62;102923.59;7393915;19;20355;-78
2023/12/16 04:50:24;;;;;;;10.70;3.13;;;;;;;8.16;76.93;102928.88;7389968;19;20345;-78
2023/12/16 04:52:51;;;;;;;9.63;3.15;;;;;;;8.18;76.75;102939.31;7390725;19;20364;-78
2023/12/16 04:55:18;;;;;;;8.43;3.40;;;;;;;8.21;76.53;102948.88;7392369;19;20377;-78
2023/12/16 04:57:45;;;;;;;11.10;2.88;;;;;;;8.21;76.49;102944.44;7391422;19;20440;-77
2023/12/16 05:00:13;;;;;;;9.55;2.85;;;;;;;8.23;76.77;102957.53;7392132;19;20658;-77
2023/12/16 05:02:40;;;;;;;10.35;3.28;;;;;;;8.22;76.77;102956.69;7393071;19;20356;-78
2023/12/16 05:05:07;;;;;;;10.65;2.88;;;;;;;8.23;76.71;102958.38;7386751;19;20361;-77
2023/12/16 05:07:34;;;;;;;10.23;2.97;;;;;;;8.23;76.37;102957.53;7392401;19;20345;-78
2023/12/16 05:10:01;;;;;;;11.05;3.10;;;;;;;8.24;76.84;102960.06;7392403;19;20345;-77
2023/12/16 05:12:28;;;;;;;9.50;3.17;;;;;;;8.25;76.66;102974.16;7392691;19;20370;-78
2023/12/16 05:15:03;;;;;;;9.85;2.95;;;;;;;8.23;76.41;102968.13;7390840;19;20393;-79
2023/12/16 05:17:30;;;;;;;11.47;3.20;;;;;;;8.20;76.51;102982.38;7396277;19;20341;-77
2023/12/16 05:19:57;;;;;;;11.70;3.10;;;;;;;8.19;76.63;102972.75;7395833;19;21734;-77
2023/12/16 05:22:24;;;;;;;11.30;3.20;;;;;;;8.20;76.97;102976.25;7396476;19;20360;-77
2023/12/16 05:24:51;;;;;;;11.40;3.30;;;;;;;8.19;76.72;102978.06;7398153;19;20378;-78
2023/12/16 05:27:17;;;;;;;13.10;3.17;;;;;;;8.16;76.38;102986.19;7399103;19;20412;-78
2023/12/16 05:29:44;;;;;;;13.27;3.70;;;;;;;8.15;76.61;102966.81;7398362;19;20352;-77
2023/12/16 05:32:11;;;;;;;12.10;3.47;;;;;;;8.16;76.75;102967.69;7398046;19;20657;-78
2023/12/16 05:34:38;;;;;;;14.10;3.85;;;;;;;8.15;76.41;102979.22;7396672;19;20349;-78
2023/12/16 05:37:05;;;;;;;13.15;3.70;;;;;;;8.17;76.74;102969.38;7398265;19;20321;-78
2023/12/16 05:39:31;;;;;;;10.68;3.25;;;;;;;8.21;76.99;102970.03;7397578;19;20360;-78
2023/12/16 05:41:58;;;;;;;12.40;3.70;;;;;;;8.16;76.82;102973.81;7399692;19;20428;-78
2023/12/16 05:44:25;;;;;;;9.18;3.30;;;;;;;8.20;76.85;102979.72;7395822;19;20368;-78
2023/12/16 05:46:52;;;;;;;14.43;3.78;;;;;;;8.20;77.00;102973.59;7399015;19;20360;-78
2023/12/16 05:49:18;;;;;;;13.02;3.88;;;;;;;8.19;77.05;102971.94;7398841;19;20336;-78
2023/12/16 05:51:45;;;;;;;12.55;3.83;;;;;;;8.20;77.31;102986.81;7399079;19;20719;-77
2023/12/16 05:54:12;;;;;;;12.63;3.90;;;;;;;8.21;77.32;102986.72;7399130;19;20748;-77
2023/12/16 05:56:39;;;;;;;13.48;4.10;;;;;;;8.17;77.32;102985.25;7397163;19;20360;-78
2023/12/16 05:59:05;;;;;;;14.05;4.15;;;;;;;8.15;77.25;102977.41;7398493;19;20389;-77
2023/12/16 06:01:32;;;;;;;11.48;3.95;;;;;;;8.14;77.43;102980.16;7396240;19;20376;-78
2023/12/16 06:03:59;;;;;;;12.77;3.60;;;;;;;8.15;77.33;102971.28;7398491;19;20357;-77
2023/12/16 06:06:26;;;;;;;13.55;4.30;;;;;;;8.12;77.03;102972.34;7393730;19;20436;-78
2023/12/16 06:08:53;;;;;;;15.48;4.20;;;;;;;8.13;77.24;102979.28;7396470;19;20365;-78
2023/12/16 06:11:23;;;;;;;11.82;3.80;;;;;;;8.11;77.10;102994.41;7398589;19;20681;-78
2023/12/16 06:13:50;;;;;;;12.00;3.95;;;;;;;8.11;77.28;102975.06;7396048;19;20374;-78
2023/12/16 06:16:17;;;;;;;10.27;3.53;;;;;;;8.13;77.37;102981.94;7398222;19;20884;-78
2023/12/16 06:18:47;;;;;;;12.73;3.63;;;;;;;8.13;77.59;102984.59;7398278;19;20353;-78
2023/12/16 06:21:15;;;;;;;12.05;4.05;;;;;;;8.13;77.48;102984.59;7399689;19;20372;-77
2023/12/16 06:23:42;;;;;;;11.55;3.63;;;;;;;8.12;77.88;102982.91;7396303;19;20356;-78
2023/12/16 06:26:09;;;;;;;12.65;3.75;;;;;;;8.11;77.90;102993.56;7393004;19;20362;-78
2023/12/16 06:28:36;;;;;;;11.05;3.80;;;;;;;8.09;78.01;102996.31;7396825;19;20371;-77
2023/12/16 06:31:03;;;;;;;12.10;3.80;;;;;;;8.06;78.47;103001.81;7396053;19;20347;-77
2023/12/16 06:33:30;;;;;;;14.45;3.97;;;;;;;8.03;78.50;102999.34;7396912;19;20381;-78
2023/12/16 06:35:57;;;;;;;11.68;3.90;;;;;;;8.03;78.65;102998.53;7391117;19;20879;-77
2023/12/16 06:38:24;;;;;;;10.73;3.50;;;;;;;8.00;78.79;103018.09;7395770;19;20356;-78
2023/12/16 06:40:50;;;;;;;14.75;4.18;;;;;;;7.99;79.02;103011.13;7397363;19;20344;-79
2023/12/16 06:43:17;;;;;;;12.20;3.83;;;;;;;7.95;79.27;103018.38;7397163;19;20674;-78
2023/12/16 06:45:44;;;;;;;13.45;4.10;;;;;;;7.96;79.60;103016.59;7395538;19;20368;-78
2023/12/16 06:48:11;;;;;;;12.88;4.25;;;;;;;7.91;79.34;103022.19;7394270;19;20321;-78
2023/12/16 06:50:38;;;;;;;10.38;3.80;;;;;;;7.93;79.43;103035.31;7395198;19;20921;-78
2023/12/16 06:53:06;;;;;;;12.35;3.90;;;;;;;7.94;79.54;103031.69;7395671;19;20404;-78
2023/12/16 06:55:33;;;;;;;12.77;4.75;;;;;;;7.93;79.47;103035.31;7394240;19;20365;-78
2023/12/16 06:58:00;;;;;;;13.82;4.32;;;;;;;7.92;79.62;103030.94;7391048;19;20886;-77
2023/12/16 07:00:26;;;;;;;10.90;4.10;;;;;;;7.90;79.48;103024.91;7390750;19;20368;-79
2023/12/16 07:02:53;;;;;;;11.73;4.05;;;;;;;7.89;79.63;103020.59;7393793;19;20853;-78
2023/12/16 07:05:20;;;;;;;13.05;4.38;;;;;;;7.89;79.61;103023.22;7394530;19;20385;-77
2023/12/16 07:07:47;;;;;;;10.60;4.15;;;;;;;7.89;79.80;103017.94;7391790;19;20359;-77
2023/12/16 07:10:14;;;;;;;13.10;4.53;;;;;;;7.87;79.71;103009.28;7396182;19;20336;-78
2023/12/16 07:12:41;;;;;;;12.90;3.65;;;;;;;7.87;79.90;103014.56;7393808;19;20349;-78
2023/12/16 07:15:08;;;;;;;11.10;4.38;;;;;;;7.84;79.89;103009.44;7395726;19;20849;-78
2023/12/16 07:17:34;;;;;;;12.38;4.05;;;;;;;7.83;79.97;103015.69;7396872;19;20683;-78
2023/12/16 07:20:02;;;;;;;12.10;4.23;;;;;;;7.80;80.00;103023.81;7395516;19;20637;-78
2023/12/16 07:22:29;;;;;;;14.05;4.45;;;;;;;7.77;80.06;103014.28;7393662;19;20363;-78
2023/12/16 07:24:57;;;;;;;14.88;4.32;;;;;;;7.75;79.74;103011.75;7393975;19;20671;-77
2023/12/16 07:27:29;;;;;;;12.45;4.60;;;;;;;7.78;79.53;103009.84;7392710;19;20723;-78
2023/12/16 07:29:55;;;;;;;14.32;4.57;;;;;;;7.75;79.73;103005.63;7388370;19;20360;-78
2023/12/16 07:32:23;;;;;;;14.48;4.70;;;;;;;7.76;79.85;103007.31;7386878;19;20376;-78
2023/12/16 07:34:50;;;;;;;14.05;4.97;;;;;;;7.72;79.70;103011.09;7394003;19;20416;-78
2023/12/16 07:37:18;;;;;;;11.98;4.70;;;;;;;7.67;79.98;103013.19;7393772;19;20560;-78
2023/12/16 07:39:45;;;;;;;13.88;4.50;;;;;;;7.60;80.08;103012.72;7392211;19;20356;-79
2023/12/16 07:42:12;;;;;;;12.23;4.82;;;;;;;7.55;80.19;103012.19;7393698;19;20356;-77
2023/12/16 07:44:38;;;;;;;14.35;4.53;;;;;;;7.47;80.24;103014.47;7394830;19;20373;-78
2023/12/16 07:47:05;;;;;;;15.43;5.15;;;;;;;7.42;80.56;103013.94;7391929;19;20389;-77
2023/12/16 07:49:32;;;;;;;14.60;5.03;;;;;;;7.38;80.63;103023.81;7394282;19;20364;-77
2023/12/16 07:52:00;;;;;;;13.80;5.07;;;;;;;7.34;80.78;103023.16;7401701;19;20364;-82
2023/12/16 07:54:27;;;;;;;13.48;4.85;;;;;;;7.36;80.73;103017.78;7401126;19;20357;-83
2023/12/16 07:56:54;;;;;;;11.77;4.30;;;;;;;7.37;80.97;103005.44;7403899;19;20349;-84
2023/12/16 07:59:21;;;;;;;13.52;5.45;;;;;;;7.33;80.88;103003.00;7401366;19;20695;-83
2023/12/16 08:01:50;;;;;;;12.45;4.50;;;;;;;7.27;80.86;103000.75;7401389;19;20392;-83
2023/12/16 08:04:18;;;;;;;13.65;4.55;;;;;;;7.23;81.00;103009.78;7402583;19;20344;-82
2023/12/16 08:06:45;;;;;;;16.33;4.93;;;;;;;7.24;81.15;102994.81;7401469;19;20377;-83
2023/12/16 08:09:13;;;;;;;12.88;4.65;;;;;;;7.22;81.16;103002.81;7398786;19;20883;-83
2023/12/16 08:11:40;;;;;;;14.98;5.07;;;;;;;7.19;81.32;103004.81;7399665;19;20723;-83
2023/12/16 08:14:07;;;;;;;13.30;5.18;;;;;;;7.18;81.04;102996.03;7398682;19;20387;-83
2023/12/16 08:16:36;;;;;;;14.60;4.45;;;;;;;7.21;81.23;102987.09;7397489;19;20369;-83
2023/12/16 08:19:03;;;;;;;11.15;4.80;;;;;;;7.17;81.21;102977.66;7399620;19;20339;-83
2023/12/16 08:21:30;;;;;;;15.48;4.80;;;;;;;7.15;81.39;102977.75;7400804;19;20367;-83
2023/12/16 08:23:57;;;;;;;14.23;5.18;;;;;;;7.17;81.10;102977.66;7401371;19;20372;-83
2023/12/16 08:26:25;;;;;;;14.77;4.70;;;;;;;7.19;81.06;102981.91;7400222;19;20353;-83
2023/12/16 08:28:52;;;;;;;14.23;4.38;;;;;;;7.28;80.89;102981.31;7401566;19;20381;-83
2023/12/16 08:31:19;;;;;;;13.80;4.70;;;;;;;7.32;80.89;102982.81;7401508;19;20381;-83
2023/12/16 08:33:46;;;;;;;14.20;4.68;;;;;;;7.34;80.77;102980.91;7406686;19;20397;-83
2023/12/16 08:36:12;;;;;;;14.65;4.97;;;;;;;7.43;80.64;102979.47;7415195;19;20352;-83
2023/12/16 08:38:39;;;;;;;14.77;4.93;;;;;;;7.48;80.08;102987.97;7415011;19;20363;-83
2023/12/16 08:41:08;;;;;;;10.80;4.07;;;;;;;7.59;80.09;103000.50;7417109;19;20378;-83
2023/12/16 08:43:35;;;;;;;13.63;4.43;;;;;;;7.61;79.78;103003.88;7415522;19;20364;-84
2023/12/16 08:46:03;;;;;;;12.43;4.23;;;;;;;7.72;79.63;102996.09;7413700;19;20358;-83
2023/12/16 08:48:31;;;;;;;14.10;4.65;;;;;;;7.79;79.12;103006.28;7413744;19;20348;-82
2023/12/16 08:50:58;;;;;;;14.18;4.90;;;;;;;7.87;79.32;102999.53;7421203;19;20399;-83
2023/12/16 08:53:24;;;;;;;13.13;4.43;;;;;;;7.90;78.79;102998.47;7422405;19;20397;-83
2023/12/16 08:55:51;;;;;;;15.73;5.10;;;;;;;7.96;78.65;102992.78;7428060;19;20356;-83
2023/12/16 08:58:18;;;;;;;14.95;5.10;;;;;;;8.02;78.37;102994.19;7425557;19;20352;-84
2023/12/16 09:00:44;;;;;;;15.50;4.38;;;;;;;8.07;77.92;102995.56;7424696;19;20360;-83
2023/12/16 09:03:14;;;;;;;15.20;4.60;;;;;;;8.16;78.02;102994.97;7423955;19;20360;-84
2023/12/16 09:05:41;;;;;;;13.85;4.25;;;;;;;8.33;77.88;103000.91;7423850;19;20440;-85
2023/12/16 09:08:08;;;;;;;13.82;4.57;;;;;;;8.50;77.57;103000.66;7413070;19;20364;-84
2023/12/16 09:10:35;;;;;;;12.27;4.43;;;;;;;8.70;77.39;103003.75;7416889;19;20453;-84
2023/12/16 09:13:02;;;;;;;15.35;4.50;;;;;;;8.88;76.06;103002.47;7413152;19;20635;-84
2023/12/16 09:15:29;;;;;;;12.82;4.10;;;;;;;9.03;75.59;103004.97;7415465;19;20724;-84
2023/12/16 09:17:56;;;;;;;11.07;3.87;;;;;;;9.17;75.00;103004.84;7417908;19;20389;-84
2023/12/16 09:20:23;;;;;;;11.40;4.05;;;;;;;9.30;74.34;102997.72;7419893;19;20401;-83
2023/12/16 09:22:49;;;;;;;12.70;4.15;;;;;;;9.42;73.96;102998.66;7418240;19;20344;-84
2023/12/16 09:25:16;;;;;;;14.32;4.07;;;;;;;9.48;73.59;102994.69;7418797;19;20368;-84
2023/12/16 09:27:44;;;;;;;12.75;3.60;;;;;;;9.50;73.00;103008.69;7415777;19;20884;-84
2023/12/16 09:30:11;;;;;;;9.00;3.38;;;;;;;9.60;73.23;103015.00;7416198;19;20359;-84
2023/12/16 09:32:42;;;;;;;12.93;3.50;;;;;;;9.64;73.58;103016.47;7420059;19;20372;-85
2023/12/16 09:35:09;;;;;;;12.13;4.00;;;;;;;9.62;73.54;103023.69;7419759;19;20381;-82
2023/12/16 09:37:35;;;;;;;12.10;3.70;;;;;;;9.57;73.01;103024.03;7420094;19;20356;-84
2023/12/16 09:40:03;;;;;;;11.10;3.30;;;;;;;9.59;73.16;103018.63;7415974;19;20349;-84
2023/12/16 09:42:34;;;;;;;12.65;3.50;;;;;;;9.50;73.57;103019.28;7415494;19;20360;-84
2023/12/16 09:45:02;;;;;;;10.98;3.45;;;;;;;9.46;73.55;103016.03;7419125;19;20392;-83
2023/12/16 09:47:30;;;;;;;11.43;3.83;;;;;;;9.43;73.76;103013.56;7416536;19;20349;-84
2023/12/16 09:49:59;;;;;;;11.10;3.55;;;;;;;9.44;74.17;103009.16;7414798;19;20373;-84
2023/12/16 09:52:29;;;;;;;15.10;3.33;;;;;;;9.38;73.99;103016.56;7414083;19;20359;-84
2023/12/16 09:54:56;;;;;;;14.18;3.58;;;;;;;9.42;74.08;103011.06;7412921;19;20934;-83
2023/12/16 09:57:24;;;;;;;16.27;4.30;;;;;;;9.45;74.40;103001.06;7406418;19;20878;-86
2023/12/16 09:59:52;;;;;;;12.20;3.22;;;;;;;9.44;74.43;103009.16;7405477;19;20356;-85
2023/12/16 10:02:26;;;;;;;10.93;3.90;;;;;;;9.48;74.82;103007.94;7401355;19;20363;-86
2023/12/16 10:04:56;;;;;;;11.38;3.35;;;;;;;9.56;74.98;103008.22;7406611;19;20359;-84
2023/12/16 10:07:24;;;;;;;9.38;3.28;;;;;;;9.60;74.85;103009.72;7403931;19;20892;-84
2023/12/16 10:09:51;;;;;;;8.35;3.00;;;;;;;9.65;74.91;103012.88;7407972;19;20401;-84
2023/12/16 10:12:21;;;;;;;12.10;3.60;;;;;;;9.70;75.03;103013.38;7404023;19;20884;-84
2023/12/16 10:14:51;;;;;;;10.88;3.53;;;;;;;9.77;74.93;103001.38;7405898;19;20360;-84
2023/12/16 10:17:20;;;;;;;11.48;3.72;;;;;;;9.72;74.28;103011.47;7404584;19;20356;-84
2023/12/16 10:19:50;;;;;;;16.05;3.50;;;;;;;9.77;74.46;102985.47;7406693;19;20360;-84
2023/12/16 10:22:18;;;;;;;11.70;3.65;;;;;;;9.80;74.66;102985.25;7404467;19;20687;-84
2023/12/16 10:24:45;;;;;;;13.18;3.58;;;;;;;9.74;74.48;102980.41;7403418;19;20378;-83
2023/12/16 10:27:13;;;;;;;11.13;3.70;;;;;;;9.81;74.00;102964.88;7401903;19;20443;-84
2023/12/16 10:29:41;;;;;;;13.07;3.30;;;;;;;9.90;74.26;102964.22;7403676;19;20444;-84
2023/12/16 10:32:28;;;;;;;15.45;4.28;;;;;;;9.97;74.24;102954.00;7396742;19;20374;-85
2023/12/16 10:34:56;;;;;;;16.77;3.78;;;;;;;10.05;74.29;102961.34;7399071;19;20362;-84
2023/12/16 10:37:23;;;;;;;10.70;3.90;;;;;;;10.08;73.82;102956.66;7401492;19;20371;-84
2023/12/16 10:39:50;;;;;;;12.85;3.35;;;;;;;10.11;73.71;102953.78;7398888;19;20381;-85
2023/12/16 10:42:17;;;;;;;14.30;4.15;;;;;;;10.23;73.74;102945.88;7400953;19;20864;-84
2023/12/16 10:44:44;;;;;;;14.07;3.92;;;;;;;10.18;73.50;102940.91;7401544;19;20364;-84
2023/12/16 10:47:18;;;;;;;12.68;3.58;;;;;;;10.23;73.58;102951.16;7394324;19;20360;-84
2023/12/16 10:49:45;;;;;;;11.23;3.50;;;;;;;10.27;73.37;102934.06;7400695;19;20349;-84
2023/12/16 10:52:13;;;;;;;15.88;4.00;;;;;;;10.25;73.59;102936.81;7400132;19;20360;-84
2023/12/16 10:54:43;;;;;;;12.90;3.67;;;;;;;10.23;73.39;102948.53;7399066;19;20364;-83
2023/12/16 10:57:28;;;;;;;13.80;3.60;;;;;;;10.21;73.31;102938.84;7400804;19;20365;-84
2023/12/16 11:00:04;;;;;;;14.48;4.15;;;;;;;10.18;73.71;102933.78;7400996;19;20378;-84
2023/12/16 11:02:58;;;;;;;12.95;3.58;;;;;;;10.20;73.11;102923.06;7401270;19;20367;-84
2023/12/16 11:05:29;;;;;;;13.80;3.17;;;;;;;10.12;73.47;102914.84;7397735;19;20432;-83
2023/12/16 11:07:57;;;;;;;13.25;3.50;;;;;;;10.12;73.98;102901.59;7396836;19;20365;-84
2023/12/16 11:10:25;;;;;;;13.60;4.00;;;;;;;10.17;74.10;102894.97;7402146;19;20372;-83
2023/12/16 11:12:52;;;;;;;13.07;3.85;;;;;;;10.19;74.17;102889.53;7399386;19;20357;-85
2023/12/16 11:15:20;;;;;;;11.20;3.55;;;;;;;10.17;74.19;102881.69;7403088;19;20427;-84
2023/12/16 11:17:56;;;;;;;14.30;3.80;;;;;;;10.20;74.32;102884.13;7399943;19;20364;-83
2023/12/16 11:20:31;;;;;;;16.38;3.67;;;;;;;10.17;74.17;102892.31;7399912;19;20691;-84
2023/12/16 11:22:59;;;;;;;12.15;3.38;;;;;;;10.21;74.16;102893.75;7400266;19;20687;-85
2023/12/16 11:25:26;;;;;;;12.48;3.30;;;;;;;10.23;74.12;102890.16;7402200;19;20362;-84